Kyana, Indiana
Current Conditions -  °F | °C
As of 11:35 AM on Sunday 23 Nov 2014 (Local Time) from KHNB Reporting Station
Overcast Overcast  
Wind Chill: 54°   Ceiling: 2600
Heat Index: 54°   Visibility: 8mi
Dew Point: 48°   Wind: 7mph
Humidity: 82%   Direction: 150°SSE
Pressure: 29.7"   Gusts: NA
Location:  38.3285°N, 86.8174°W
Report Text: KHNB 231735Z AUTO 15006KT 8SM OVC026 12/09 A2970 RMK AO1 P0003
Loading
Personal Weather Stations






























Interactive Weather Map New forecast layout! Learn more

10-Day Weather Forecast

Advertisements
Track Severe Weather on mobile